sensor_id;sensor_type;location;lat;lon;timestamp;temperature;humidity
25504;DHT22;13410;52.114;5.718;2022-08-18T00:01:15;25.40;99.90
25504;DHT22;13410;52.114;5.718;2022-08-18T00:03:42;25.70;99.90
25504;DHT22;13410;52.114;5.718;2022-08-18T00:06:08;25.90;99.90
25504;DHT22;13410;52.114;5.718;2022-08-18T00:08:34;26.10;99.90
25504;DHT22;13410;52.114;5.718;2022-08-18T00:10:59;26.00;99.90
25504;DHT22;13410;52.114;5.718;2022-08-18T00:13:25;26.30;99.90
25504;DHT22;13410;52.114;5.718;2022-08-18T00:15:51;26.30;99.90
25504;DHT22;13410;52.114;5.718;2022-08-18T00:18:17;26.40;99.90
25504;DHT22;13410;52.114;5.718;2022-08-18T00:20:43;26.10;99.90
25504;DHT22;13410;52.114;5.718;2022-08-18T00:23:09;25.30;99.90
25504;DHT22;13410;52.114;5.718;2022-08-18T00:25:35;25.30;99.90
25504;DHT22;13410;52.114;5.718;2022-08-18T00:28:00;25.50;99.90
25504;DHT22;13410;52.114;5.718;2022-08-18T00:30:26;25.60;99.90
25504;DHT22;13410;52.114;5.718;2022-08-18T00:32:55;25.70;99.90
25504;DHT22;13410;52.114;5.718;2022-08-18T00:35:27;25.80;99.90
25504;DHT22;13410;52.114;5.718;2022-08-18T00:37:54;25.40;99.90
25504;DHT22;13410;52.114;5.718;2022-08-18T00:40:23;25.00;99.90
25504;DHT22;13410;52.114;5.718;2022-08-18T00:42:53;24.80;99.90
25504;DHT22;13410;52.114;5.718;2022-08-18T00:45:23;24.50;99.90
25504;DHT22;13410;52.114;5.718;2022-08-18T00:47:50;24.30;99.90
25504;DHT22;13410;52.114;5.718;2022-08-18T00:50:23;23.70;99.90
25504;DHT22;13410;52.114;5.718;2022-08-18T00:53:16;23.30;99.90
25504;DHT22;13410;52.114;5.718;2022-08-18T00:55:44;22.80;99.90
25504;DHT22;13410;52.114;5.718;2022-08-18T00:58:17;22.50;99.90
25504;DHT22;13410;52.114;5.718;2022-08-18T01:00:43;22.70;99.90
25504;DHT22;13410;52.114;5.718;2022-08-18T01:03:13;22.50;99.90
25504;DHT22;13410;52.114;5.718;2022-08-18T01:05:48;22.80;99.90
25504;DHT22;13410;52.114;5.718;2022-08-18T01:08:16;23.00;99.90
25504;DHT22;13410;52.114;5.718;2022-08-18T01:10:42;23.30;99.90
25504;DHT22;13410;52.114;5.718;2022-08-18T01:13:09;23.50;99.90
25504;DHT22;13410;52.114;5.718;2022-08-18T01:15:35;23.50;99.90
25504;DHT22;13410;52.114;5.718;2022-08-18T01:18:09;23.30;99.90
25504;DHT22;13410;52.114;5.718;2022-08-18T01:20:59;23.40;99.90
25504;DHT22;13410;52.114;5.718;2022-08-18T01:23:47;23.40;99.90
25504;DHT22;13410;52.114;5.718;2022-08-18T01:26:14;23.70;99.90
25504;DHT22;13410;52.114;5.718;2022-08-18T01:28:43;23.30;99.90
25504;DHT22;13410;52.114;5.718;2022-08-18T01:31:11;23.60;99.90
25504;DHT22;13410;52.114;5.718;2022-08-18T01:33:41;23.90;99.90
25504;DHT22;13410;52.114;5.718;2022-08-18T01:36:16;23.80;99.90
25504;DHT22;13410;52.114;5.718;2022-08-18T01:38:47;24.00;99.90
25504;DHT22;13410;52.114;5.718;2022-08-18T01:41:15;24.40;99.90
25504;DHT22;13410;52.114;5.718;2022-08-18T01:43:40;24.90;99.90
25504;DHT22;13410;52.114;5.718;2022-08-18T01:46:06;24.60;99.90
25504;DHT22;13410;52.114;5.718;2022-08-18T01:48:34;24.80;99.90
25504;DHT22;13410;52.114;5.718;2022-08-18T01:51:03;24.90;99.90
25504;DHT22;13410;52.114;5.718;2022-08-18T01:53:29;25.20;99.90
25504;DHT22;13410;52.114;5.718;2022-08-18T01:55:54;25.20;99.90
25504;DHT22;13410;52.114;5.718;2022-08-18T01:58:21;25.30;99.90
25504;DHT22;13410;52.114;5.718;2022-08-18T02:00:55;25.30;99.90
25504;DHT22;13410;52.114;5.718;2022-08-18T02:03:25;25.30;99.90
25504;DHT22;13410;52.114;5.718;2022-08-18T02:05:55;25.30;99.90
25504;DHT22;13410;52.114;5.718;2022-08-18T02:08:23;25.10;99.90
25504;DHT22;13410;52.114;5.718;2022-08-18T02:10:48;24.80;99.90
25504;DHT22;13410;52.114;5.718;2022-08-18T02:13:14;25.00;99.90
25504;DHT22;13410;52.114;5.718;2022-08-18T02:15:39;25.00;99.90
25504;DHT22;13410;52.114;5.718;2022-08-18T02:18:12;25.20;99.90
25504;DHT22;13410;52.114;5.718;2022-08-18T02:20:38;25.30;99.90
25504;DHT22;13410;52.114;5.718;2022-08-18T02:23:04;25.80;99.90
25504;DHT22;13410;52.114;5.718;2022-08-18T02:25:29;25.90;99.90
25504;DHT22;13410;52.114;5.718;2022-08-18T02:27:55;25.70;99.90
25504;DHT22;13410;52.114;5.718;2022-08-18T02:30:21;25.60;99.90
25504;DHT22;13410;52.114;5.718;2022-08-18T02:32:47;25.10;99.90
25504;DHT22;13410;52.114;5.718;2022-08-18T02:35:13;24.90;99.90
25504;DHT22;13410;52.114;5.718;2022-08-18T02:37:40;24.80;99.90
25504;DHT22;13410;52.114;5.718;2022-08-18T02:40:07;24.60;99.90
25504;DHT22;13410;52.114;5.718;2022-08-18T02:42:33;24.70;99.90
25504;DHT22;13410;52.114;5.718;2022-08-18T02:44:59;24.70;99.90
25504;DHT22;13410;52.114;5.718;2022-08-18T02:47:24;24.90;99.90
25504;DHT22;13410;52.114;5.718;2022-08-18T02:49:50;25.20;99.90
25504;DHT22;13410;52.114;5.718;2022-08-18T02:52:16;25.40;99.90
25504;DHT22;13410;52.114;5.718;2022-08-18T02:54:41;25.40;99.90
25504;DHT22;13410;52.114;5.718;2022-08-18T02:57:09;25.50;99.90
25504;DHT22;13410;52.114;5.718;2022-08-18T02:59:38;25.40;99.90
25504;DHT22;13410;52.114;5.718;2022-08-18T03:02:06;25.90;99.90
25504;DHT22;13410;52.114;5.718;2022-08-18T03:04:33;26.00;99.90
25504;DHT22;13410;52.114;5.718;2022-08-18T03:07:02;26.40;99.90
25504;DHT22;13410;52.114;5.718;2022-08-18T03:09:30;26.40;99.90
25504;DHT22;13410;52.114;5.718;2022-08-18T03:11:57;26.30;99.90
25504;DHT22;13410;52.114;5.718;2022-08-18T03:14:23;26.40;99.90
25504;DHT22;13410;52.114;5.718;2022-08-18T03:16:49;26.50;99.90
25504;DHT22;13410;52.114;5.718;2022-08-18T03:19:15;26.50;99.90
25504;DHT22;13410;52.114;5.718;2022-08-18T03:21:44;26.60;99.90
25504;DHT22;13410;52.114;5.718;2022-08-18T03:24:10;26.70;99.90
25504;DHT22;13410;52.114;5.718;2022-08-18T03:26:40;26.50;99.90
25504;DHT22;13410;52.114;5.718;2022-08-18T03:29:07;26.60;99.90
25504;DHT22;13410;52.114;5.718;2022-08-18T03:31:33;26.50;99.90
25504;DHT22;13410;52.114;5.718;2022-08-18T03:34:04;26.40;99.90
25504;DHT22;13410;52.114;5.718;2022-08-18T03:36:31;26.40;99.90
25504;DHT22;13410;52.114;5.718;2022-08-18T03:39:00;26.60;99.90
25504;DHT22;13410;52.114;5.718;2022-08-18T03:41:26;26.50;99.90
25504;DHT22;13410;52.114;5.718;2022-08-18T03:43:53;26.30;99.90
25504;DHT22;13410;52.114;5.718;2022-08-18T03:46:20;26.30;99.90
25504;DHT22;13410;52.114;5.718;2022-08-18T03:48:47;26.10;99.90
25504;DHT22;13410;52.114;5.718;2022-08-18T03:51:21;26.20;99.90
25504;DHT22;13410;52.114;5.718;2022-08-18T03:53:49;26.00;99.90
25504;DHT22;13410;52.114;5.718;2022-08-18T03:56:18;25.80;99.90
25504;DHT22;13410;52.114;5.718;2022-08-18T03:58:45;25.70;99.90
25504;DHT22;13410;52.114;5.718;2022-08-18T04:01:16;25.60;99.90
25504;DHT22;13410;52.114;5.718;2022-08-18T04:03:44;25.60;99.90
25504;DHT22;13410;52.114;5.718;2022-08-18T04:06:16;25.40;99.90
25504;DHT22;13410;52.114;5.718;2022-08-18T04:08:42;25.50;99.90
25504;DHT22;13410;52.114;5.718;2022-08-18T04:11:09;25.50;99.90
25504;DHT22;13410;52.114;5.718;2022-08-18T04:13:35;25.50;99.90
25504;DHT22;13410;52.114;5.718;2022-08-18T04:16:01;25.60;99.90
25504;DHT22;13410;52.114;5.718;2022-08-18T04:18:27;25.30;99.90
25504;DHT22;13410;52.114;5.718;2022-08-18T04:20:54;25.30;99.90
25504;DHT22;13410;52.114;5.718;2022-08-18T04:23:20;25.10;99.90
25504;DHT22;13410;52.114;5.718;2022-08-18T04:25:55;24.80;99.90
25504;DHT22;13410;52.114;5.718;2022-08-18T04:28:21;24.60;99.90
25504;DHT22;13410;52.114;5.718;2022-08-18T04:30:46;25.00;99.90
25504;DHT22;13410;52.114;5.718;2022-08-18T04:33:12;24.80;99.90
25504;DHT22;13410;52.114;5.718;2022-08-18T04:35:38;25.30;99.90
25504;DHT22;13410;52.114;5.718;2022-08-18T04:38:04;25.40;99.90
25504;DHT22;13410;52.114;5.718;2022-08-18T04:40:32;25.60;99.90
25504;DHT22;13410;52.114;5.718;2022-08-18T04:42:58;25.60;99.90
25504;DHT22;13410;52.114;5.718;2022-08-18T04:45:26;25.80;99.90
25504;DHT22;13410;52.114;5.718;2022-08-18T04:47:51;25.60;99.90
25504;DHT22;13410;52.114;5.718;2022-08-18T04:50:17;25.30;99.90
25504;DHT22;13410;52.114;5.718;2022-08-18T04:52:43;25.20;99.90
25504;DHT22;13410;52.114;5.718;2022-08-18T04:55:27;25.60;99.90
25504;DHT22;13410;52.114;5.718;2022-08-18T04:57:54;25.70;99.90
25504;DHT22;13410;52.114;5.718;2022-08-18T05:00:19;25.70;99.90
25504;DHT22;13410;52.114;5.718;2022-08-18T05:02:45;25.80;99.90
25504;DHT22;13410;52.114;5.718;2022-08-18T05:05:11;25.50;99.90
25504;DHT22;13410;52.114;5.718;2022-08-18T05:07:42;25.80;99.90
25504;DHT22;13410;52.114;5.718;2022-08-18T05:10:09;26.00;99.90
25504;DHT22;13410;52.114;5.718;2022-08-18T05:12:37;26.10;99.90
25504;DHT22;13410;52.114;5.718;2022-08-18T05:15:06;26.20;99.90
25504;DHT22;13410;52.114;5.718;2022-08-18T05:17:36;26.00;99.90
25504;DHT22;13410;52.114;5.718;2022-08-18T05:20:05;26.20;99.90
25504;DHT22;13410;52.114;5.718;2022-08-18T05:22:39;26.50;99.90
25504;DHT22;13410;52.114;5.718;2022-08-18T05:25:09;26.80;99.90
25504;DHT22;13410;52.114;5.718;2022-08-18T05:27:37;27.00;99.90
25504;DHT22;13410;52.114;5.718;2022-08-18T05:30:04;27.10;99.90
25504;DHT22;13410;52.114;5.718;2022-08-18T05:32:38;27.30;99.90
25504;DHT22;13410;52.114;5.718;2022-08-18T05:35:14;27.50;99.90
25504;DHT22;13410;52.114;5.718;2022-08-18T05:38:06;27.90;99.90
25504;DHT22;13410;52.114;5.718;2022-08-18T05:40:38;27.80;99.90
25504;DHT22;13410;52.114;5.718;2022-08-18T05:43:04;28.00;99.90
25504;DHT22;13410;52.114;5.718;2022-08-18T05:45:30;28.10;99.90
25504;DHT22;13410;52.114;5.718;2022-08-18T05:47:58;28.30;99.90
25504;DHT22;13410;52.114;5.718;2022-08-18T05:50:25;28.30;99.90
25504;DHT22;13410;52.114;5.718;2022-08-18T05:52:57;28.30;99.90
25504;DHT22;13410;52.114;5.718;2022-08-18T05:58:21;28.20;99.90
25504;DHT22;13410;52.114;5.718;2022-08-18T06:00:54;28.10;99.90
25504;DHT22;13410;52.114;5.718;2022-08-18T06:03:24;27.60;99.90
25504;DHT22;13410;52.114;5.718;2022-08-18T06:05:57;27.40;99.90
25504;DHT22;13410;52.114;5.718;2022-08-18T06:08:39;27.30;99.90
25504;DHT22;13410;52.114;5.718;2022-08-18T06:11:06;27.10;99.90
25504;DHT22;13410;52.114;5.718;2022-08-18T06:13:37;27.20;99.90
25504;DHT22;13410;52.114;5.718;2022-08-18T06:16:42;27.60;99.90
25504;DHT22;13410;52.114;5.718;2022-08-18T06:22:31;28.10;99.90
25504;DHT22;13410;52.114;5.718;2022-08-18T06:28:12;27.70;99.90
25504;DHT22;13410;52.114;5.718;2022-08-18T06:30:58;28.20;99.90
25504;DHT22;13410;52.114;5.718;2022-08-18T06:33:38;28.80;99.90
25504;DHT22;13410;52.114;5.718;2022-08-18T06:39:23;29.40;99.90
25504;DHT22;13410;52.114;5.718;2022-08-18T06:41:51;29.60;99.90
25504;DHT22;13410;52.114;5.718;2022-08-18T06:50:19;29.80;99.90
25504;DHT22;13410;52.114;5.718;2022-08-18T06:52:54;29.80;99.90
25504;DHT22;13410;52.114;5.718;2022-08-18T06:55:34;29.60;99.90
25504;DHT22;13410;52.114;5.718;2022-08-18T06:58:04;29.80;99.90
25504;DHT22;13410;52.114;5.718;2022-08-18T07:00:34;29.40;99.90
25504;DHT22;13410;52.114;5.718;2022-08-18T07:03:06;29.80;99.90
25504;DHT22;13410;52.114;5.718;2022-08-18T07:05:34;30.30;99.90
25504;DHT22;13410;52.114;5.718;2022-08-18T07:08:36;30.60;99.90
25504;DHT22;13410;52.114;5.718;2022-08-18T07:11:22;31.00;99.90
25504;DHT22;13410;52.114;5.718;2022-08-18T07:13:53;30.40;99.90
25504;DHT22;13410;52.114;5.718;2022-08-18T07:16:31;30.10;99.90
25504;DHT22;13410;52.114;5.718;2022-08-18T07:19:12;29.50;99.90
25504;DHT22;13410;52.114;5.718;2022-08-18T07:21:40;29.00;99.90
25504;DHT22;13410;52.114;5.718;2022-08-18T07:24:24;29.30;99.90
25504;DHT22;13410;52.114;5.718;2022-08-18T07:27:05;29.00;99.90
25504;DHT22;13410;52.114;5.718;2022-08-18T07:29:34;28.90;99.90
25504;DHT22;13410;52.114;5.718;2022-08-18T07:32:12;29.00;99.90
25504;DHT22;13410;52.114;5.718;2022-08-18T07:34:43;29.10;99.90
25504;DHT22;13410;52.114;5.718;2022-08-18T07:37:31;29.60;99.90
25504;DHT22;13410;52.114;5.718;2022-08-18T07:40:26;29.60;99.90
25504;DHT22;13410;52.114;5.718;2022-08-18T07:43:04;30.20;99.90
25504;DHT22;13410;52.114;5.718;2022-08-18T07:45:39;30.20;99.90
25504;DHT22;13410;52.114;5.718;2022-08-18T07:48:21;30.20;99.90
25504;DHT22;13410;52.114;5.718;2022-08-18T07:51:02;29.80;99.90
25504;DHT22;13410;52.114;5.718;2022-08-18T08:04:53;28.30;99.90
25504;DHT22;13410;52.114;5.718;2022-08-18T08:07:28;27.70;99.90
25504;DHT22;13410;52.114;5.718;2022-08-18T08:15:27;27.30;99.90
25504;DHT22;13410;52.114;5.718;2022-08-18T08:18:08;27.20;99.90
25504;DHT22;13410;52.114;5.718;2022-08-18T08:20:42;27.30;99.90
25504;DHT22;13410;52.114;5.718;2022-08-18T08:23:35;27.10;99.90
25504;DHT22;13410;52.114;5.718;2022-08-18T08:26:15;27.00;99.90
25504;DHT22;13410;52.114;5.718;2022-08-18T08:28:53;26.90;99.90
25504;DHT22;13410;52.114;5.718;2022-08-18T08:31:45;27.40;99.90
25504;DHT22;13410;52.114;5.718;2022-08-18T08:36:56;28.60;99.90
25504;DHT22;13410;52.114;5.718;2022-08-18T08:39:35;28.70;99.90
25504;DHT22;13410;52.114;5.718;2022-08-18T08:42:26;28.60;99.90
25504;DHT22;13410;52.114;5.718;2022-08-18T08:44:54;28.60;99.90
25504;DHT22;13410;52.114;5.718;2022-08-18T08:50:11;28.40;99.90
25504;DHT22;13410;52.114;5.718;2022-08-18T08:52:46;27.70;99.90
25504;DHT22;13410;52.114;5.718;2022-08-18T08:55:20;27.40;99.90
25504;DHT22;13410;52.114;5.718;2022-08-18T09:00:38;26.50;99.90
25504;DHT22;13410;52.114;5.718;2022-08-18T09:06:14;26.60;99.90
25504;DHT22;13410;52.114;5.718;2022-08-18T09:22:47;28.10;99.90
25504;DHT22;13410;52.114;5.718;2022-08-18T09:25:33;28.10;99.90
25504;DHT22;13410;52.114;5.718;2022-08-18T09:28:18;27.80;99.90
25504;DHT22;13410;52.114;5.718;2022-08-18T09:38:52;28.50;99.90
25504;DHT22;13410;52.114;5.718;2022-08-18T09:41:50;28.70;99.90
25504;DHT22;13410;52.114;5.718;2022-08-18T09:47:05;29.50;99.90
25504;DHT22;13410;52.114;5.718;2022-08-18T09:49:42;29.40;99.90
25504;DHT22;13410;52.114;5.718;2022-08-18T09:57:33;29.10;99.90
25504;DHT22;13410;52.114;5.718;2022-08-18T10:10:57;27.10;99.90
25504;DHT22;13410;52.114;5.718;2022-08-18T10:16:16;27.70;99.90
25504;DHT22;13410;52.114;5.718;2022-08-18T10:21:21;28.70;99.90
25504;DHT22;13410;52.114;5.718;2022-08-18T10:23:58;29.30;99.90
25504;DHT22;13410;52.114;5.718;2022-08-18T10:34:43;29.10;99.90
25504;DHT22;13410;52.114;5.718;2022-08-18T10:37:35;28.90;99.90
25504;DHT22;13410;52.114;5.718;2022-08-18T10:42:41;28.60;99.90
25504;DHT22;13410;52.114;5.718;2022-08-18T10:45:28;28.50;99.90
25504;DHT22;13410;52.114;5.718;2022-08-18T10:48:18;28.00;99.90
25504;DHT22;13410;52.114;5.718;2022-08-18T10:51:05;28.00;99.90
25504;DHT22;13410;52.114;5.718;2022-08-18T10:56:25;28.60;99.90
25504;DHT22;13410;52.114;5.718;2022-08-18T10:59:00;28.80;99.90
25504;DHT22;13410;52.114;5.718;2022-08-18T11:06:29;28.90;99.90
25504;DHT22;13410;52.114;5.718;2022-08-18T11:09:01;28.60;99.90
25504;DHT22;13410;52.114;5.718;2022-08-18T11:11:35;28.30;99.90
25504;DHT22;13410;52.114;5.718;2022-08-18T11:19:45;27.50;99.90
25504;DHT22;13410;52.114;5.718;2022-08-18T11:22:31;27.60;99.90
25504;DHT22;13410;52.114;5.718;2022-08-18T11:24:58;27.60;99.90
25504;DHT22;13410;52.114;5.718;2022-08-18T11:27:28;27.80;99.90
25504;DHT22;13410;52.114;5.718;2022-08-18T11:29:59;28.20;99.90
25504;DHT22;13410;52.114;5.718;2022-08-18T11:32:37;28.30;99.90
25504;DHT22;13410;52.114;5.718;2022-08-18T11:37:48;29.00;99.90
25504;DHT22;13410;52.114;5.718;2022-08-18T11:40:27;29.40;99.90
25504;DHT22;13410;52.114;5.718;2022-08-18T11:45:30;29.60;99.90
25504;DHT22;13410;52.114;5.718;2022-08-18T11:48:16;29.30;99.90
25504;DHT22;13410;52.114;5.718;2022-08-18T11:53:37;28.40;99.90
25504;DHT22;13410;52.114;5.718;2022-08-18T12:09:19;28.40;99.90
25504;DHT22;13410;52.114;5.718;2022-08-18T12:11:55;28.40;99.90
25504;DHT22;13410;52.114;5.718;2022-08-18T12:14:26;28.60;99.90
25504;DHT22;13410;52.114;5.718;2022-08-18T12:16:52;28.80;99.90
25504;DHT22;13410;52.114;5.718;2022-08-18T12:19:19;28.70;99.90
25504;DHT22;13410;52.114;5.718;2022-08-18T12:21:56;27.90;99.90
25504;DHT22;13410;52.114;5.718;2022-08-18T12:24:25;28.30;99.90
25504;DHT22;13410;52.114;5.718;2022-08-18T12:26:52;28.20;99.90
25504;DHT22;13410;52.114;5.718;2022-08-18T12:29:18;28.10;99.90
25504;DHT22;13410;52.114;5.718;2022-08-18T12:31:45;27.30;99.90
25504;DHT22;13410;52.114;5.718;2022-08-18T12:34:11;27.10;99.90
25504;DHT22;13410;52.114;5.718;2022-08-18T12:36:37;27.40;99.90
25504;DHT22;13410;52.114;5.718;2022-08-18T12:39:03;27.60;99.90
25504;DHT22;13410;52.114;5.718;2022-08-18T12:41:29;27.90;99.90
25504;DHT22;13410;52.114;5.718;2022-08-18T12:43:54;28.20;99.90
25504;DHT22;13410;52.114;5.718;2022-08-18T12:46:20;27.90;99.90
25504;DHT22;13410;52.114;5.718;2022-08-18T12:48:46;27.20;99.90
25504;DHT22;13410;52.114;5.718;2022-08-18T12:51:12;26.80;99.90
25504;DHT22;13410;52.114;5.718;2022-08-18T12:53:38;27.30;99.90
25504;DHT22;13410;52.114;5.718;2022-08-18T12:56:24;27.70;99.90
25504;DHT22;13410;52.114;5.718;2022-08-18T12:58:51;28.20;99.90
25504;DHT22;13410;52.114;5.718;2022-08-18T13:01:18;28.20;99.90
25504;DHT22;13410;52.114;5.718;2022-08-18T13:03:47;28.20;99.90
25504;DHT22;13410;52.114;5.718;2022-08-18T13:06:13;27.90;99.90
25504;DHT22;13410;52.114;5.718;2022-08-18T13:08:39;28.30;99.90
25504;DHT22;13410;52.114;5.718;2022-08-18T13:11:05;27.70;99.90
25504;DHT22;13410;52.114;5.718;2022-08-18T13:13:36;26.90;99.90
25504;DHT22;13410;52.114;5.718;2022-08-18T13:16:03;26.60;99.90
25504;DHT22;13410;52.114;5.718;2022-08-18T13:18:29;26.40;99.90
25504;DHT22;13410;52.114;5.718;2022-08-18T13:20:58;26.60;99.90
25504;DHT22;13410;52.114;5.718;2022-08-18T13:23:25;26.50;99.90
25504;DHT22;13410;52.114;5.718;2022-08-18T13:25:52;27.00;99.90
25504;DHT22;13410;52.114;5.718;2022-08-18T13:28:17;27.60;99.90
25504;DHT22;13410;52.114;5.718;2022-08-18T13:30:43;27.70;99.90
25504;DHT22;13410;52.114;5.718;2022-08-18T13:33:10;27.60;99.90
25504;DHT22;13410;52.114;5.718;2022-08-18T13:35:36;27.90;99.90
25504;DHT22;13410;52.114;5.718;2022-08-18T13:38:02;27.90;99.90
25504;DHT22;13410;52.114;5.718;2022-08-18T13:40:30;27.50;99.90
25504;DHT22;13410;52.114;5.718;2022-08-18T13:42:55;28.10;99.90
25504;DHT22;13410;52.114;5.718;2022-08-18T13:45:21;28.20;99.90
25504;DHT22;13410;52.114;5.718;2022-08-18T13:47:48;28.30;99.90
25504;DHT22;13410;52.114;5.718;2022-08-18T13:50:14;28.70;99.90
25504;DHT22;13410;52.114;5.718;2022-08-18T13:52:40;29.00;99.90
25504;DHT22;13410;52.114;5.718;2022-08-18T13:55:11;28.90;99.90
25504;DHT22;13410;52.114;5.718;2022-08-18T13:57:38;28.10;99.90
25504;DHT22;13410;52.114;5.718;2022-08-18T14:00:09;27.90;99.90
25504;DHT22;13410;52.114;5.718;2022-08-18T14:02:38;28.40;99.90
25504;DHT22;13410;52.114;5.718;2022-08-18T14:05:05;29.40;99.90
25504;DHT22;13410;52.114;5.718;2022-08-18T14:07:34;29.50;99.90
25504;DHT22;13410;52.114;5.718;2022-08-18T14:10:02;30.00;99.90
25504;DHT22;13410;52.114;5.718;2022-08-18T14:12:28;30.60;99.90
25504;DHT22;13410;52.114;5.718;2022-08-18T14:14:55;30.50;99.90
25504;DHT22;13410;52.114;5.718;2022-08-18T14:17:22;30.20;99.90
25504;DHT22;13410;52.114;5.718;2022-08-18T14:19:49;29.00;99.90
25504;DHT22;13410;52.114;5.718;2022-08-18T14:22:33;29.40;99.90
25504;DHT22;13410;52.114;5.718;2022-08-18T14:25:17;29.00;99.90
25504;DHT22;13410;52.114;5.718;2022-08-18T14:28:01;27.90;99.90
25504;DHT22;13410;52.114;5.718;2022-08-18T14:30:26;27.70;99.90
25504;DHT22;13410;52.114;5.718;2022-08-18T14:32:52;27.40;99.90
25504;DHT22;13410;52.114;5.718;2022-08-18T14:35:18;27.60;99.90
25504;DHT22;13410;52.114;5.718;2022-08-18T14:37:44;27.30;99.90
25504;DHT22;13410;52.114;5.718;2022-08-18T14:40:10;27.10;99.90
25504;DHT22;13410;52.114;5.718;2022-08-18T14:42:35;26.80;99.90
25504;DHT22;13410;52.114;5.718;2022-08-18T14:45:01;26.60;99.90
25504;DHT22;13410;52.114;5.718;2022-08-18T14:47:27;26.20;99.90
25504;DHT22;13410;52.114;5.718;2022-08-18T14:49:53;25.50;99.90
25504;DHT22;13410;52.114;5.718;2022-08-18T14:52:21;24.90;99.90
25504;DHT22;13410;52.114;5.718;2022-08-18T14:54:48;24.90;99.90
25504;DHT22;13410;52.114;5.718;2022-08-18T14:57:13;25.00;99.90
25504;DHT22;13410;52.114;5.718;2022-08-18T14:59:39;25.60;99.90
25504;DHT22;13410;52.114;5.718;2022-08-18T15:02:07;26.60;99.90
25504;DHT22;13410;52.114;5.718;2022-08-18T15:04:35;26.50;99.90
25504;DHT22;13410;52.114;5.718;2022-08-18T15:07:01;26.90;99.90
25504;DHT22;13410;52.114;5.718;2022-08-18T15:09:27;26.30;99.90
25504;DHT22;13410;52.114;5.718;2022-08-18T15:11:55;26.40;99.90
25504;DHT22;13410;52.114;5.718;2022-08-18T15:14:23;27.00;99.90
25504;DHT22;13410;52.114;5.718;2022-08-18T15:16:50;27.60;99.90
25504;DHT22;13410;52.114;5.718;2022-08-18T15:19:15;27.20;99.90
25504;DHT22;13410;52.114;5.718;2022-08-18T15:21:41;28.00;99.90
25504;DHT22;13410;52.114;5.718;2022-08-18T15:24:25;28.10;99.90
25504;DHT22;13410;52.114;5.718;2022-08-18T15:27:10;28.20;99.90
25504;DHT22;13410;52.114;5.718;2022-08-18T15:29:35;27.80;99.90
25504;DHT22;13410;52.114;5.718;2022-08-18T15:32:01;27.70;99.90
25504;DHT22;13410;52.114;5.718;2022-08-18T15:34:27;27.90;99.90
25504;DHT22;13410;52.114;5.718;2022-08-18T15:36:54;27.70;99.90
25504;DHT22;13410;52.114;5.718;2022-08-18T15:39:21;27.40;99.90
25504;DHT22;13410;52.114;5.718;2022-08-18T15:41:47;27.50;99.90
25504;DHT22;13410;52.114;5.718;2022-08-18T15:44:15;27.80;99.90
25504;DHT22;13410;52.114;5.718;2022-08-18T15:46:41;27.60;99.90
25504;DHT22;13410;52.114;5.718;2022-08-18T15:49:07;27.70;99.90
25504;DHT22;13410;52.114;5.718;2022-08-18T15:51:34;27.90;99.90
25504;DHT22;13410;52.114;5.718;2022-08-18T15:54:00;27.80;99.90
25504;DHT22;13410;52.114;5.718;2022-08-18T15:56:27;28.00;99.90
25504;DHT22;13410;52.114;5.718;2022-08-18T15:58:53;28.10;99.90
25504;DHT22;13410;52.114;5.718;2022-08-18T16:01:23;28.30;99.90
25504;DHT22;13410;52.114;5.718;2022-08-18T16:03:50;28.50;99.90
25504;DHT22;13410;52.114;5.718;2022-08-18T16:06:23;28.90;99.90
25504;DHT22;13410;52.114;5.718;2022-08-18T16:08:50;28.70;99.90
25504;DHT22;13410;52.114;5.718;2022-08-18T16:11:16;28.80;99.90
25504;DHT22;13410;52.114;5.718;2022-08-18T16:13:44;29.10;99.90
25504;DHT22;13410;52.114;5.718;2022-08-18T16:16:11;29.00;99.90
25504;DHT22;13410;52.114;5.718;2022-08-18T16:18:38;29.30;99.90
25504;DHT22;13410;52.114;5.718;2022-08-18T16:21:06;29.20;99.90
25504;DHT22;13410;52.114;5.718;2022-08-18T16:23:40;29.00;99.90
25504;DHT22;13410;52.114;5.718;2022-08-18T16:26:07;29.10;99.90
25504;DHT22;13410;52.114;5.718;2022-08-18T16:28:33;29.10;99.90
25504;DHT22;13410;52.114;5.718;2022-08-18T16:31:00;29.00;99.90
25504;DHT22;13410;52.114;5.718;2022-08-18T16:33:25;28.90;99.90
25504;DHT22;13410;52.114;5.718;2022-08-18T16:35:51;28.80;99.90
25504;DHT22;13410;52.114;5.718;2022-08-18T16:38:18;28.50;99.90
25504;DHT22;13410;52.114;5.718;2022-08-18T16:40:44;28.80;99.90
25504;DHT22;13410;52.114;5.718;2022-08-18T16:43:10;28.80;99.90
25504;DHT22;13410;52.114;5.718;2022-08-18T16:45:40;28.70;99.90
25504;DHT22;13410;52.114;5.718;2022-08-18T16:48:07;28.40;99.90
25504;DHT22;13410;52.114;5.718;2022-08-18T16:50:34;28.40;99.90
25504;DHT22;13410;52.114;5.718;2022-08-18T16:53:00;28.70;99.90
25504;DHT22;13410;52.114;5.718;2022-08-18T16:55:26;28.80;99.90
25504;DHT22;13410;52.114;5.718;2022-08-18T16:57:52;28.90;99.90
25504;DHT22;13410;52.114;5.718;2022-08-18T17:00:36;29.20;99.90
25504;DHT22;13410;52.114;5.718;2022-08-18T17:03:21;29.30;99.90
25504;DHT22;13410;52.114;5.718;2022-08-18T17:06:14;29.10;99.90
25504;DHT22;13410;52.114;5.718;2022-08-18T17:08:41;29.10;99.90
25504;DHT22;13410;52.114;5.718;2022-08-18T17:11:10;28.80;99.90
25504;DHT22;13410;52.114;5.718;2022-08-18T17:13:38;29.10;99.90
25504;DHT22;13410;52.114;5.718;2022-08-18T17:16:05;29.30;99.90
25504;DHT22;13410;52.114;5.718;2022-08-18T17:18:31;29.50;99.90
25504;DHT22;13410;52.114;5.718;2022-08-18T17:21:01;29.70;99.90
25504;DHT22;13410;52.114;5.718;2022-08-18T17:23:30;29.70;99.90
25504;DHT22;13410;52.114;5.718;2022-08-18T17:25:56;29.70;99.90
25504;DHT22;13410;52.114;5.718;2022-08-18T17:28:26;29.50;99.90
25504;DHT22;13410;52.114;5.718;2022-08-18T17:30:54;29.60;99.90
25504;DHT22;13410;52.114;5.718;2022-08-18T17:33:25;29.60;99.90
25504;DHT22;13410;52.114;5.718;2022-08-18T17:35:52;29.50;99.90
25504;DHT22;13410;52.114;5.718;2022-08-18T17:41:23;29.50;99.90
25504;DHT22;13410;52.114;5.718;2022-08-18T17:43:50;29.30;99.90
25504;DHT22;13410;52.114;5.718;2022-08-18T17:46:26;29.10;99.90
25504;DHT22;13410;52.114;5.718;2022-08-18T17:49:00;29.10;99.90
25504;DHT22;13410;52.114;5.718;2022-08-18T17:51:39;29.20;99.90
25504;DHT22;13410;52.114;5.718;2022-08-18T17:54:28;29.20;99.90
25504;DHT22;13410;52.114;5.718;2022-08-18T17:57:00;29.40;99.90
25504;DHT22;13410;52.114;5.718;2022-08-18T18:02:23;29.60;99.90
25504;DHT22;13410;52.114;5.718;2022-08-18T18:04:50;29.50;99.90
25504;DHT22;13410;52.114;5.718;2022-08-18T18:07:34;29.40;99.90
25504;DHT22;13410;52.114;5.718;2022-08-18T18:10:21;29.60;99.90
25504;DHT22;13410;52.114;5.718;2022-08-18T18:13:08;29.50;99.90
25504;DHT22;13410;52.114;5.718;2022-08-18T18:15:37;29.50;99.90